This is the latest recevied weather packets stored in our database for station/object OE6PWE-13. If no packets are shown the sender has not sent any weather packets the latest 10 day(s).
| Time | Temp. | Humidity | Pressure | Rain* | Wind** | Luminosity | Snow |
|---|---|---|---|---|---|---|---|
| 1777661114 | 13.89° C | 59% | 1026 hPa | 0 mm | - | - | - |
| 1777660219 | 14.44° C | 57% | 1025 hPa | 0 mm | - | - | - |
| 1777659314 | 15.56° C | 54% | 1025 hPa | 0 mm | - | - | - |
| 1777658421 | 17.22° C | 49% | 1025 hPa | 0 mm | - | - | - |
| 1777657513 | 18.33° C | 47% | 1024 hPa | 0 mm | - | - | - |
| 1777656621 | 18.89° C | 45% | 1024 hPa | 0 mm | - | - | - |
| 1777655713 | 18.89° C | 43% | 1024 hPa | 0 mm | - | - | - |
| 1777653913 | 19.44° C | 42% | 1024 hPa | 0 mm | - | - | - |
| 1777653018 | 20° C | 41% | 1024 hPa | 0 mm | - | - | - |
| 1777652114 | 20.56° C | 40% | 1024 hPa | 0 mm | - | - | - |
| 1777651221 | 20.56° C | 40% | 1024 hPa | 0 mm | - | - | - |
| 1777650313 | 20.56° C | 39% | 1024 hPa | 0 mm | - | - | - |
| 1777648513 | 21.11° C | 37% | 1024 hPa | 0 mm | - | - | - |
| 1777647621 | 21.11° C | 38% | 1024 hPa | 0 mm | - | - | - |
| 1777646713 | 21.67° C | 36% | 1024 hPa | 0 mm | - | - | - |
| 1777645820 | 21.11° C | 37% | 1024 hPa | 0 mm | - | - | - |
| 1777644913 | 21.11° C | 36% | 1024 hPa | 0 mm | - | - | - |
| 1777644021 | 21.67° C | 36% | 1024 hPa | 0 mm | - | - | - |
| 1777643113 | 20° C | 39% | 1025 hPa | 0 mm | - | - | - |
| 1777642221 | 20° C | 39% | 1025 hPa | 0 mm | - | - | - |
| 1777641313 | 21.11° C | 38% | 1025 hPa | 0 mm | - | - | - |
| 1777640421 | 20.56° C | 36% | 1025 hPa | 0 mm | - | - | - |
| 1777639514 | 20° C | 39% | 1025 hPa | 0 mm | - | - | - |
| 1777638618 | 19.44° C | 40% | 1026 hPa | 0 mm | - | - | - |
| 1777637713 | 18.89° C | 38% | 1026 hPa | 0 mm | - | - | - |
* Rain latest hour (hover to see other rain measurements)
** Current wind speed in m/s (hover to see current wind gust speed)